メインページ
METAR-TAF:

METAR-TAF

空港 :

ハバナ, キューバ

ホセ・マルティ国際空港

緯度: 22-59N, 経度: 082-24W, 海抜: 59m

現時点の気象観測

当レポートは41分前の21:55(UTC)に作成
北東の風 13kt
気温 31°C
湿度 63%
気圧 1016 hPa
視程: 9000m
高度3000ftの雲は散在している

METAR: MUHA 262155Z 05013KT 9000 SCT030 31/23 Q1016

時間: 18:36 (22:36 UTC)

予報

当レポートは5時間36分前の17:00(UTC)に作成
予報は26日の 18時(UTC)から 27日の 18時(UTC)まで有効
の風 8kt
視程: 9000m
高度3000ftの雲は散在している
26日の 19時(UTC)から 26日の 23時(UTC)まで一時的に
視程: 5000m
高度1800ftの雲はほとんどない, 積乱雲.
高度2000ftの千切れ雲あり
にわか雨
27日の 01時(UTC)から 27日の 03時(UTC)まで徐々に
変向風 3kt
27日の 11時(UTC)から 27日の 13時(UTC)まで徐々に
東/南東の風 10kt

TAF: MUHA 261700Z 2618/2718 08008KT 9000 SCT030 TEMPO 2619/2623 5000 SHRA FEW018CB BKN020 BECMG 2701/2703 VRB03KT BECMG 2711/2713 12010KT

4,000以上の空港の気象観測と天気予報(METAR報とTAF報)

利用可能な観測所は地図上に黄色い丸と赤い丸で示す。

丸の上にカーソルを重ねると観測所名を参照できる。

次にクリックすると気象観測と天気予報を参照できる。

マップの切り替え:黒色「×」印の緑ボタンをクリックして拡大、「-」印の緑ボタンをクリックして縮小、緑色の三角印をクリックして隣りの地図に切り替え


METAR-TAF: